Time;durP1;ratioP1;P1;durP2;ratioP2;P2;SDS_P1;SDS_P2;PMS_P1;PMS_P2;Temp;Humidity;BMP_temperature;BMP_pressure;BME280_temperature;BME280_humidity;BME280_pressure;Samples;Min_cycle;Max_cycle;Signal;HPM_P1;HPM_P2
2023/05/02 00:00:35;;;;;;;12.57;4.43;;;;;;;;;;5093098;28;20370;-69
2023/05/02 00:03:01;;;;;;;7.45;3.60;;;;;;;;;;5092305;28;20256;-69
2023/05/02 00:05:27;;;;;;;8.93;3.95;;;;;;;;;;5103114;28;20462;-70
2023/05/02 00:07:53;;;;;;;10.57;3.60;;;;;;;;;;5105033;28;20040;-69
2023/05/02 00:10:19;;;;;;;7.53;3.63;;;;;;;;;;5096933;28;20130;-69
2023/05/02 00:12:46;;;;;;;7.75;3.20;;;;;;;;;;5103590;28;20035;-69
2023/05/02 00:15:12;;;;;;;13.02;3.90;;;;;;;;;;5108059;28;20039;-69
2023/05/02 00:17:40;;;;;;;5.03;3.38;;;;;;;;;;5097655;28;20028;-69
2023/05/02 00:20:08;;;;;;;10.68;4.03;;;;;;;;;;5095455;28;20446;-69
2023/05/02 00:22:34;;;;;;;6.18;2.95;;;;;;;;;;5098216;28;20532;-69
2023/05/02 00:25:01;;;;;;;7.80;2.63;;;;;;;;;;5092487;28;20036;-69
2023/05/02 00:27:27;;;;;;;5.13;3.15;;;;;;;;;;5103032;28;20043;-69
2023/05/02 00:29:53;;;;;;;8.35;2.45;;;;;;;;;;5102807;28;20051;-69
2023/05/02 00:32:20;;;;;;;6.15;3.20;;;;;;;;;;5106068;28;20413;-69
2023/05/02 00:34:46;;;;;;;6.40;2.80;;;;;;;;;;5104862;28;20036;-70
2023/05/02 00:37:12;;;;;;;6.18;2.70;;;11.60;99.90;;;;;;5103073;28;20036;-69
2023/05/02 00:39:38;;;;;;;7.78;2.90;;;10.60;99.90;;;;;;5098769;28;20039;-69
2023/05/02 00:42:05;;;;;;;6.20;3.05;;;;;;;;;;5094461;28;20165;-69
2023/05/02 00:44:31;;;;;;;5.55;3.13;;;;;;;;;;5091357;28;20047;-69
2023/05/02 00:46:58;;;;;;;4.63;3.47;;;;;;;;;;5098024;28;20072;-70
2023/05/02 00:49:24;;;;;;;5.97;2.28;;;;;;;;;;5102470;28;20031;-69
2023/05/02 00:51:50;;;;;;;7.63;3.13;;;;;;;;;;5097740;28;20047;-69
2023/05/02 00:54:16;;;;;;;13.18;4.72;;;;;;;;;;5099504;28;20128;-69
2023/05/02 00:56:43;;;;;;;8.88;4.43;;;;;;;;;;5098017;28;20139;-69
2023/05/02 00:59:10;;;;;;;9.73;4.60;;;;;;;;;;5101539;28;20043;-69
2023/05/02 01:01:42;;;;;;;13.73;5.40;;;;;;;;;;5099517;28;20035;-69
2023/05/02 01:04:14;;;;;;;12.57;5.00;;;;;;;;;;5090814;28;20032;-69
2023/05/02 01:06:59;;;;;;;12.23;5.32;;;;;;;;;;5092566;28;20036;-69
2023/05/02 01:09:39;;;;;;;7.97;3.95;;;;;;;;;;5093156;28;20182;-69
2023/05/02 01:12:24;;;;;;;10.40;4.32;;;;;;;;;;5100126;28;20032;-69
2023/05/02 01:14:53;;;;;;;10.95;5.30;;;;;;;;;;5094256;28;20186;-69
2023/05/02 01:17:22;;;;;;;13.27;5.95;;;;;;;;;;5100139;28;20125;-68
2023/05/02 01:19:53;;;;;;;15.10;4.95;;;;;;;;;;5093797;28;20040;-69
2023/05/02 01:22:20;;;;;;;11.90;5.88;;;;;;;;;;5090059;28;20403;-68
2023/05/02 01:25:02;;;;;;;19.00;5.07;;;;;;;;;;5100668;28;20421;-69
2023/05/02 01:27:47;;;;;;;17.20;5.05;;;;;;;;;;5097982;28;20045;-69
2023/05/02 01:30:14;;;;;;;13.50;4.53;;;;;;;;;;5100925;28;20044;-69
2023/05/02 01:32:43;;;;;;;16.52;5.03;;;;;;;;;;5103616;28;20051;-69
2023/05/02 01:35:10;;;;;;;12.57;6.05;;;;;;;;;;5102033;28;20042;-70
2023/05/02 01:37:37;;;;;;;14.65;4.63;;;;;;;;;;5093239;28;20051;-69
2023/05/02 01:40:04;;;;;;;14.85;5.00;;;;;;;;;;5089735;28;20032;-69
2023/05/02 01:42:32;;;;;;;15.88;5.40;;;;;;;;;;5099820;28;20032;-69
2023/05/02 01:44:59;;;;;;;13.05;6.50;;;;;;;;;;5090380;28;20040;-69
2023/05/02 01:47:26;;;;;;;11.02;6.00;;;;;;;;;;5098027;28;20047;-69
2023/05/02 01:49:52;;;;;;;16.02;6.13;;;;;;;;;;5081709;28;20036;-71
2023/05/02 01:52:21;;;;;;;13.57;6.05;;;;;;;;;;5100627;28;20439;-69
2023/05/02 01:54:47;;;;;;;14.43;5.63;;;;;;;;;;5095271;28;20054;-69
2023/05/02 01:57:15;;;;;;;14.15;6.47;;;;;;;;;;5091609;28;20054;-69
2023/05/02 01:59:42;;;;;;;15.32;5.82;;;;;;;;;;5099100;28;20047;-69
2023/05/02 02:02:09;;;;;;;19.02;7.32;;;;;;;;;;5095589;28;20248;-69
2023/05/02 02:04:37;;;;;;;18.35;5.80;;;10.50;99.90;;;;;;5095473;28;20443;-68
2023/05/02 02:07:06;;;;;;;18.05;5.75;;;;;;;;;;5105351;28;20050;-69
2023/05/02 02:09:32;;;;;;;17.25;5.65;;;;;;;;;;5091601;28;20055;-68
2023/05/02 02:12:12;;;;;;;19.35;7.35;;;;;;;;;;5096818;28;20032;-70
2023/05/02 02:14:39;;;;;;;33.00;7.93;;;;;;;;;;5091220;28;20071;-70
2023/05/02 02:17:11;;;;;;;17.90;6.20;;;;;;;;;;5105324;28;20042;-69
2023/05/02 02:19:39;;;;;;;12.65;6.78;;;;;;;;;;5097462;28;20051;-69
2023/05/02 02:22:07;;;;;;;12.93;5.25;;;;;;;;;;5096862;28;20093;-69
2023/05/02 02:24:34;;;;;;;20.23;5.82;;;;;;;;;;5096205;28;20075;-69
2023/05/02 02:27:01;;;;;;;17.70;6.45;;;;;;;;;;5096393;28;20115;-69
2023/05/02 02:29:28;;;;;;;24.63;6.13;;;;;;;;;;5101386;28;20039;-69
2023/05/02 02:31:54;;;;;;;16.05;7.22;;;;;;;;;;5093377;28;20044;-68
2023/05/02 02:34:21;;;;;;;24.92;5.82;;;;;;;;;;5093875;28;20071;-69
2023/05/02 02:36:47;;;;;;;14.65;5.10;;;;;;;;;;5092248;28;20044;-68
2023/05/02 02:39:16;;;;;;;17.08;6.10;;;;;;;;;;5100853;28;20510;-68
2023/05/02 02:41:50;;;;;;;11.55;5.35;;;;;;;;;;5095702;28;20040;-69
2023/05/02 02:44:16;;;;;;;14.15;5.05;;;;;;;;;;5104229;28;20044;-69
2023/05/02 02:47:08;;;;;;;16.55;5.95;;;;;;;;;;5103838;28;20047;-68
2023/05/02 02:49:40;;;;;;;14.60;4.57;;;;;;;;;;5107861;28;20413;-69
2023/05/02 02:52:14;;;;;;;15.23;5.50;;;;;;;;;;5101556;28;20422;-69
2023/05/02 02:54:49;;;;;;;12.05;4.53;;;;;;;;;;5093648;28;20044;-68
2023/05/02 02:57:18;;;;;;;14.13;4.60;;;;;;;;;;5105182;28;20052;-69
2023/05/02 03:00:04;;;;;;;10.18;4.43;;;;;;;;;;5104859;28;20040;-72
2023/05/02 03:02:32;;;;;;;8.35;3.58;;;;;;;;;;5101229;28;20548;-69
2023/05/02 03:04:59;;;;;;;18.58;4.15;;;;;;;;;;5095373;28;20032;-69
2023/05/02 03:07:27;;;;;;;14.82;4.22;;;;;;;;;;5094930;28;20071;-69
2023/05/02 03:09:53;;;;;;;10.43;4.13;;;;;;;;;;5097716;28;20122;-69
2023/05/02 03:12:20;;;;;;;8.70;3.53;;;;;;;;;;5097404;28;20497;-69
2023/05/02 03:14:46;;;;;;;8.95;3.88;;;;;;;;;;5095076;28;20725;-69
2023/05/02 03:17:12;;;;;;;9.93;3.42;;;;;;;;;;5097171;28;20400;-69
2023/05/02 03:19:38;;;;;;;14.93;3.67;;;;;;;;;;5099024;28;20500;-69
2023/05/02 03:22:04;;;;;;;14.88;5.97;;;;;;;;;;5096320;28;20085;-71
2023/05/02 03:24:30;;;;;;;13.70;4.30;;;;;;;;;;5094032;28;20063;-68
2023/05/02 03:26:58;;;;;;;10.15;3.55;;;;;;;;;;5095945;28;20051;-70
2023/05/02 03:29:24;;;;;;;13.10;4.07;;;;;;;;;;5097593;28;20129;-68
2023/05/02 03:31:51;;;;;;;11.85;3.70;;;;;;;;;;5096780;28;20465;-68
2023/05/02 03:34:18;;;;;;;9.93;3.63;;;;;;;;;;5094556;28;20112;-68
2023/05/02 03:36:44;;;;;;;9.60;3.55;;;;;;;;;;5105933;28;20039;-69
2023/05/02 03:39:11;;;;;;;10.52;4.93;;;;;;;;;;5097176;28;20485;-70
2023/05/02 03:41:37;;;;;;;12.90;3.47;;;;;;;;;;5103442;28;20096;-69
2023/05/02 03:44:03;;;;;;;8.88;3.30;;;;;;;;;;5098786;28;20507;-68
2023/05/02 03:46:29;;;;;;;8.27;3.58;;;;;;;;;;5102596;28;20043;-68
2023/05/02 03:48:57;;;;;;;9.45;2.65;;;;;;;;;;5104428;28;20039;-68
2023/05/02 03:51:23;;;;;;;10.13;4.43;;;;;;;;;;5101339;28;20036;-69
2023/05/02 03:53:49;;;;;;;10.40;2.95;;;;;;;;;;5092727;28;20036;-69
2023/05/02 03:56:19;;;;;;;15.35;3.45;;;;;;;;;;5101880;28;20051;-68
2023/05/02 03:58:46;;;;;;;9.90;2.92;;;;;;;;;;5102380;27;20039;-70
2023/05/02 04:01:15;;;;;;;5.75;2.00;;;;;;;;;;5101654;28;20131;-68
2023/05/02 04:03:42;;;;;;;4.95;2.10;;;;;;;;;;5093425;28;20105;-68
2023/05/02 04:06:08;;;;;;;8.15;2.97;;;;;;;;;;5107369;28;20598;-68
2023/05/02 04:08:34;;;;;;;6.22;2.63;;;;;;;;;;5093318;28;20046;-69
2023/05/02 04:11:00;;;;;;;7.57;2.38;;;;;;;;;;5091621;28;20036;-69
2023/05/02 04:13:28;;;;;;;4.95;2.17;;;;;;;;;;5098051;28;20439;-68
2023/05/02 04:15:54;;;;;;;5.00;1.85;;;;;;;;;;5101692;28;20545;-68
2023/05/02 04:18:20;;;;;;;8.15;2.80;;;;;;;;;;5094739;28;20032;-69
2023/05/02 04:20:46;;;;;;;10.13;2.33;;;;;;;;;;5092798;28;20052;-68
2023/05/02 04:23:13;;;;;;;5.55;2.30;;;;;;;;;;5101045;28;20042;-68
2023/05/02 04:25:39;;;;;;;4.95;2.40;;;;;;;;;;5093001;28;20124;-67
2023/05/02 04:28:05;;;;;;;6.85;2.10;;;;;;;;;;5093691;28;20093;-68
2023/05/02 04:30:32;;;;;;;8.15;3.00;;;;;;;;;;5099635;28;20049;-68
2023/05/02 04:32:58;;;;;;;3.67;2.15;;;;;;;;;;5096794;28;20036;-70
2023/05/02 04:35:24;;;;;;;10.27;1.92;;;;;;;;;;5094492;28;20036;-69
2023/05/02 04:37:50;;;;;;;7.00;2.90;;;;;;;;;;5096798;28;20370;-68
2023/05/02 04:40:16;;;;;;;10.02;2.38;;;;;;;;;;5106266;28;20043;-68
2023/05/02 04:42:43;;;;;;;6.25;2.10;;;;;;;;;;5097675;28;20920;-68
2023/05/02 04:45:09;;;;;;;6.72;2.85;;;;;;;;;;5094862;28;20036;-69
2023/05/02 04:47:35;;;;;;;9.23;2.97;;;;;;;;;;5107659;28;20275;-69
2023/05/02 04:50:01;;;;;;;11.45;3.20;;;;;;;;;;5101920;28;20062;-68
2023/05/02 04:52:27;;;;;;;10.10;2.97;;;;;;;;;;5096728;28;20432;-68
2023/05/02 04:54:53;;;;;;;10.70;3.75;;;;;;;;;;5101707;28;20098;-68
2023/05/02 04:57:20;;;;;;;9.35;3.58;;;;;;;;;;5099729;28;20126;-69
2023/05/02 04:59:46;;;;;;;11.38;4.15;;;;;;;;;;5101291;28;20433;-69
2023/05/02 05:02:12;;;;;;;9.75;3.30;;;;;;;;;;5094542;28;20079;-68
2023/05/02 05:04:38;;;;;;;6.40;2.80;;;;;;;;;;5091579;28;20417;-68
2023/05/02 05:07:04;;;;;;;12.50;3.33;;;;;;;;;;5093373;28;20042;-67
2023/05/02 05:09:30;;;;;;;6.18;3.20;;;;;;;;;;5097081;28;20038;-69
2023/05/02 05:11:56;;;;;;;8.85;3.53;;;;;;;;;;5093747;28;20469;-68
2023/05/02 05:14:23;;;;;;;7.72;3.25;;;;;;;;;;5094009;28;20032;-68
2023/05/02 05:16:49;;;;;;;9.68;3.03;;;;;;;;;;5102989;28;20040;-68
2023/05/02 05:19:15;;;;;;;8.20;3.13;;;;;;;;;;5100326;28;20035;-69
2023/05/02 05:21:41;;;;;;;9.30;3.20;;;;;;;;;;5096374;28;20455;-70
2023/05/02 05:24:08;;;;;;;9.30;2.97;;;;;;;;;;5090121;28;20052;-68
2023/05/02 05:26:34;;;;;;;9.15;4.60;;;;;;;;;;5098978;28;20079;-68
2023/05/02 05:29:00;;;;;;;8.98;3.17;;;;;;;;;;5098294;28;20039;-68
2023/05/02 05:31:26;;;;;;;7.53;3.67;;;;;;;;;;5092750;28;20047;-69
2023/05/02 05:33:52;;;;;;;10.48;4.03;;;;;;;;;;5101524;28;20127;-70
2023/05/02 05:36:18;;;;;;;9.75;3.40;;;;;;;;;;5091843;28;20062;-71
2023/05/02 05:38:45;;;;;;;10.50;3.25;;;;;;;;;;5092460;28;20055;-70
2023/05/02 05:41:11;;;;;;;7.88;2.92;;;;;;;;;;5091065;28;20040;-71
2023/05/02 05:43:37;;;;;;;4.88;2.45;;;;;;;;;;5100372;28;20065;-70
2023/05/02 05:46:03;;;;;;;5.68;2.80;;;;;;;;;;5095445;28;20036;-70
2023/05/02 05:48:30;;;;;;;7.43;3.00;;;;;;;;;;5094249;28;20042;-69
2023/05/02 05:50:56;;;;;;;10.93;2.88;;;;;;;;;;5097992;28;20438;-69
2023/05/02 05:53:22;;;;;;;9.43;3.08;;;;;;;;;;5095009;28;20039;-68
2023/05/02 05:55:48;;;;;;;8.70;3.13;;;;;;;;;;5101803;28;20047;-69
2023/05/02 05:58:15;;;;;;;8.23;4.03;;;;;;;;;;5092757;28;20528;-68
2023/05/02 06:00:41;;;;;;;8.57;3.05;;;;;;;;;;5091971;28;20043;-69
2023/05/02 06:03:07;;;;;;;8.48;2.67;;;;;;;;;;5090294;28;20105;-69
2023/05/02 06:05:33;;;;;;;9.48;3.30;;;;;;;;;;5098455;28;20044;-69
2023/05/02 06:07:59;;;;;;;7.80;2.72;;;;;;;;;;5098496;28;20476;-69
2023/05/02 06:10:26;;;;;;;9.10;3.20;;;;;;;;;;5096288;28;20328;-68
2023/05/02 06:12:52;;;;;;;10.23;3.10;;;;;;;;;;5098890;28;20027;-70
2023/05/02 06:15:18;;;;;;;6.68;2.65;;;;;;;;;;5096769;28;20032;-69
2023/05/02 06:17:44;;;;;;;8.43;2.95;;;;;;;;;;5092395;28;20042;-69
2023/05/02 06:20:10;;;;;;;7.70;2.83;;;;;;;;;;5095120;28;20116;-69
2023/05/02 06:22:38;;;;;;;7.10;3.72;;;;;;;;;;5105304;28;20047;-69
2023/05/02 06:25:06;;;;;;;7.57;2.90;;;;;;;;;;5096462;28;20402;-69
2023/05/02 06:27:32;;;;;;;7.07;3.53;;;;;;;;;;5091846;28;20044;-70
2023/05/02 06:29:58;;;;;;;7.13;3.05;;;;;;;;;;5102517;28;20043;-68
2023/05/02 06:32:25;;;;;;;8.75;3.17;;;;;;;;;;5094381;28;20043;-69
2023/05/02 06:34:51;;;;;;;12.13;3.20;;;;;;;;;;5089060;28;20044;-69
2023/05/02 06:37:17;;;;;;;6.57;2.42;;;;;;;;;;5091301;28;20055;-70
2023/05/02 06:39:43;;;;;;;9.25;3.15;;;;;;;;;;5101246;28;20054;-69
2023/05/02 06:42:09;;;;;;;6.65;3.35;;;;;;;;;;5092985;28;20389;-68
2023/05/02 06:44:35;;;;;;;7.88;3.33;;;;;;;;;;5103972;28;20046;-69
2023/05/02 06:47:03;;;;;;;13.07;3.30;;;;;;;;;;5093125;28;20040;-70
2023/05/02 06:49:30;;;;;;;7.45;3.55;;;;;;;;;;5091344;28;20036;-69
2023/05/02 06:51:56;;;;;;;10.70;3.60;;;;;;;;;;5099996;28;20048;-70
2023/05/02 06:54:22;;;;;;;6.63;3.47;;;;;;;;;;5091105;28;20486;-69
2023/05/02 06:56:48;;;;;;;10.00;3.25;;;;;;;;;;5099937;28;20052;-70
2023/05/02 06:59:17;;;;;;;6.88;3.05;;;;;;;;;;5096751;28;20028;-69
2023/05/02 07:01:44;;;;;;;9.15;3.45;;;;;;;;;;5102259;28;20058;-69
2023/05/02 07:04:10;;;;;;;9.48;3.72;;;;;;;;;;5092489;28;20063;-69
2023/05/02 07:06:36;;;;;;;8.18;3.15;;;;;;;;;;5090050;28;20042;-69
2023/05/02 07:09:02;;;;;;;7.32;2.92;;;;;;;;;;5096348;28;20071;-69
2023/05/02 07:11:28;;;;;;;7.45;3.85;;;;;;;;;;5096149;28;20122;-69
2023/05/02 07:13:54;;;;;;;16.75;3.67;;;;;;;;;;5092987;28;20040;-69
2023/05/02 07:16:21;;;;;;;5.65;3.25;;;;;;;;;;5088670;28;20097;-69
2023/05/02 07:18:47;;;;;;;7.88;3.25;;;;;;;;;;5100997;28;20115;-69
2023/05/02 07:21:13;;;;;;;12.00;3.88;;;;;;;;;;5098766;28;20082;-68
2023/05/02 07:23:39;;;;;;;16.83;4.55;;;;;;;;;;5097929;28;20039;-69
2023/05/02 07:26:07;;;;;;;10.25;4.13;;;;;;;;;;5105515;28;20121;-69
2023/05/02 07:28:33;;;;;;;8.70;3.05;;;;;;;;;;5095024;28;20071;-69
2023/05/02 07:30:59;;;;;;;8.23;2.63;;;;;;;;;;5095563;28;20039;-69
2023/05/02 07:33:25;;;;;;;11.95;4.93;;;;;;;;;;5090900;28;20043;-69
2023/05/02 07:35:51;;;;;;;11.48;3.20;;;;;;;;;;5102683;28;20040;-69
2023/05/02 07:38:18;;;;;;;7.70;3.00;;;;;;;;;;5096273;28;20024;-69
2023/05/02 07:40:45;;;;;;;8.02;2.67;;;;;;;;;;5096572;28;20044;-70
2023/05/02 07:43:11;;;;;;;8.55;3.10;;;;;;;;;;5093590;28;20412;-70
2023/05/02 07:45:38;;;;;;;4.80;2.70;;;;;;;;;;5094210;28;20420;-69
2023/05/02 07:48:04;;;;;;;7.68;2.83;;;;;;;;;;5103575;28;20109;-69
2023/05/02 07:50:30;;;;;;;14.13;4.68;;;;;;;;;;5102766;28;20040;-70
2023/05/02 07:52:56;;;;;;;9.55;2.97;;;;;;;;;;5107166;28;20046;-70
2023/05/02 07:55:25;;;;;;;8.50;3.95;;;;;;;;;;5094733;28;20036;-70
2023/05/02 07:57:51;;;;;;;10.38;2.95;;;;;;;;;;5101529;28;20044;-70
2023/05/02 08:00:18;;;;;;;6.93;3.45;;;;;;;;;;5096546;28;20036;-70
2023/05/02 08:02:44;;;;;;;10.43;2.75;;;;;;;;;;5103013;28;20042;-70
2023/05/02 08:05:11;;;;;;;7.80;2.55;;;;;;;;;;5105796;28;20071;-69
2023/05/02 08:07:37;;;;;;;5.18;2.50;;;;;;;;;;5100444;28;20046;-69
2023/05/02 08:10:03;;;;;;;9.00;3.17;;;;;;;;;;5106792;28;20039;-70
2023/05/02 08:12:29;;;;;;;5.63;2.00;;;;;;;;;;5101787;28;20050;-69
2023/05/02 08:14:56;;;;;;;10.73;2.80;;;;;;;;;;5092973;28;20036;-69
2023/05/02 08:17:22;;;;;;;6.97;2.15;;;;;;;;;;5094191;28;20077;-69
2023/05/02 08:19:48;;;;;;;12.43;3.22;;;;;;;;;;5095996;28;20036;-69
2023/05/02 08:22:14;;;;;;;6.55;2.70;;;;;;;;;;5104292;28;20035;-70
2023/05/02 08:24:40;;;;;;;6.05;2.17;;;;;;;;;;5100022;28;20086;-70
2023/05/02 08:27:06;;;;;;;7.68;2.97;;;;;;;;;;5104195;28;20443;-69
2023/05/02 08:29:32;;;;;;;8.18;3.50;;;;;;;;;;5092551;28;20040;-69
2023/05/02 08:31:59;;;;;;;6.10;2.58;;;;;;;;;;5094697;28;20510;-69
2023/05/02 08:34:25;;;;;;;8.02;2.40;;;;;;;;;;5095609;28;20032;-69
2023/05/02 08:36:51;;;;;;;6.13;2.30;;;;;;;;;;5094820;28;20040;-70
2023/05/02 08:39:18;;;;;;;9.27;2.58;;;;;;;;;;5104984;28;20396;-68
2023/05/02 08:41:44;;;;;;;6.78;2.45;;;;;;;;;;5104351;28;20118;-69
2023/05/02 08:44:12;;;;;;;18.38;2.65;;;;;;;;;;5095436;28;20404;-69
2023/05/02 08:46:40;;;;;;;6.80;1.83;;;;;;;;;;5094580;28;20661;-68
2023/05/02 08:49:07;;;;;;;4.72;1.80;;;;;;;;;;5094322;28;20051;-67
2023/05/02 08:51:34;;;;;;;8.07;1.77;;;;;;;;;;5101237;28;20490;-70
2023/05/02 08:54:06;;;;;;;3.17;1.88;;;;;;;;;;5093920;28;20039;-69
2023/05/02 08:56:32;;;;;;;4.60;1.52;;;;;;;;;;5098928;28;20048;-69
2023/05/02 08:58:59;;;;;;;4.32;1.95;;;;;;;;;;5091083;28;20044;-69
2023/05/02 09:01:28;;;;;;;4.82;1.38;;;;;;;;;;5102028;28;20039;-69
2023/05/02 09:03:56;;;;;;;5.13;2.28;;;;;;;;;;5090778;28;20040;-69
2023/05/02 09:06:22;;;;;;;8.70;2.05;;;;;;;;;;5092654;28;20071;-68
2023/05/02 09:08:49;;;;;;;2.67;1.55;;;;;;;;;;5100471;28;20044;-70
2023/05/02 09:11:16;;;;;;;5.28;1.77;;;;;;;;;;5095699;28;20046;-70
2023/05/02 09:13:47;;;;;;;5.32;1.75;;;;;;;;;;5099155;28;20039;-70
2023/05/02 09:16:14;;;;;;;3.40;1.75;;;;;;;;;;5089145;28;20048;-69
2023/05/02 09:18:40;;;;;;;4.55;1.63;;;;;;;;;;5093284;28;20036;-69
2023/05/02 09:21:07;;;;;;;3.90;1.67;;;;;;;;;;5099977;28;20048;-69
2023/05/02 09:23:34;;;;;;;5.13;1.63;;;;;;;;;;5100408;28;20100;-68
2023/05/02 09:26:01;;;;;;;5.57;1.70;;;;;;;;;;5103989;28;20459;-69
2023/05/02 09:28:40;;;;;;;3.63;1.60;;;;;;;;;;5093516;28;20040;-69
2023/05/02 09:31:10;;;;;;;4.57;1.80;;;;;;;;;;5096019;28;20043;-68
2023/05/02 09:33:38;;;;;;;12.38;2.17;;;;;;;;;;5098707;28;20071;-68
2023/05/02 09:36:05;;;;;;;4.55;2.25;;;;;;;;;;5092292;28;20509;-68
2023/05/02 09:38:32;;;;;;;4.82;1.80;;;;;;;;;;5099477;28;20043;-68
2023/05/02 09:40:59;;;;;;;5.50;2.30;;;;;;;;;;5097503;28;20453;-67
2023/05/02 09:43:28;;;;;;;5.28;1.80;;;;;;;;;;5107760;28;20047;-68
2023/05/02 09:46:01;;;;;;;5.32;1.80;;;;;;;;;;5099019;28;20036;-68
2023/05/02 09:48:28;;;;;;;7.68;2.03;;;;;;;;;;5089792;28;20040;-68
2023/05/02 09:50:55;;;;;;;3.30;2.05;;;;;;;;;;5094485;28;20035;-69
2023/05/02 09:53:21;;;;;;;4.00;1.92;;;;;;;;;;5104810;28;20050;-70
2023/05/02 09:55:48;;;;;;;4.97;1.77;;;;;;;;;;5101568;28;20405;-70
2023/05/02 09:58:24;;;;;;;5.00;1.77;;;;;;;;;;5091474;28;20043;-70
2023/05/02 10:00:51;;;;;;;3.55;1.70;;;;;;;;;;5092315;28;20044;-69
2023/05/02 10:03:18;;;;;;;1.52;1.00;;;;;;;;;;5101899;28;20044;-70
2023/05/02 10:05:45;;;;;;;2.25;1.20;;;;;;;;;;5083675;28;20040;-69
2023/05/02 10:08:11;;;;;;;3.45;1.30;;;;;;;;;;5094785;28;20110;-70
2023/05/02 10:10:39;;;;;;;2.63;1.50;;;;;;;;;;5104376;28;20485;-69
2023/05/02 10:13:07;;;;;;;3.47;1.40;;;;;;;;;;5101950;28;20079;-69
2023/05/02 10:15:34;;;;;;;2.20;1.13;;;;;;;;;;5097762;28;20040;-69
2023/05/02 10:18:03;;;;;;;6.50;1.63;;;;;;;;;;5093831;28;20032;-69
2023/05/02 10:20:31;;;;;;;8.80;1.95;;;;;;;;;;5090729;28;20051;-69
2023/05/02 10:22:59;;;;;;;6.03;1.80;;;;;;;;;;5092062;28;20131;-69
2023/05/02 10:25:26;;;;;;;7.82;1.98;;;;;;;;;;5096124;28;20047;-69
2023/05/02 10:27:52;;;;;;;5.90;2.45;;;;;;;;;;5096178;28;20512;-68
2023/05/02 10:30:18;;;;;;;5.10;1.83;;;;;;;;;;5098692;28;20043;-69
2023/05/02 10:32:47;;;;;;;3.28;1.95;;;;;;;;;;5096021;28;20036;-69
2023/05/02 10:35:15;;;;;;;2.85;1.75;;;;;;;;;;5093932;28;20046;-70
2023/05/02 10:37:42;;;;;;;6.30;1.88;;;;;;;;;;5090347;28;20024;-70
2023/05/02 10:40:12;;;;;;;3.63;1.67;;;;;;;;;;5095981;28;20394;-69
2023/05/02 10:42:40;;;;;;;5.63;2.17;;;;;;;;;;5095472;28;20580;-69
2023/05/02 10:45:30;;;;;;;4.10;2.00;;;;;;;;;;5101528;28;20093;-70
2023/05/02 10:48:14;;;;;;;3.50;1.63;;;;;;;;;;5094329;28;20112;-70
2023/05/02 10:50:48;;;;;;;4.53;1.65;;;;;;;;;;5098184;28;20055;-69
2023/05/02 10:53:27;;;;;;;7.47;2.13;;;;;;;;;;5097631;28;20046;-70
2023/05/02 10:56:14;;;;;;;4.22;1.55;;;;;;;;;;5093645;28;20044;-69
2023/05/02 10:58:41;;;;;;;3.35;1.45;;;;;;;;;;5099277;28;20063;-69
2023/05/02 11:01:28;;;;;;;3.42;1.48;;;;;;;;;;5100039;28;20047;-69
2023/05/02 11:03:56;;;;;;;3.60;1.77;;;;;;;;;;5096367;28;20046;-70
2023/05/02 11:06:22;;;;;;;2.63;1.40;;;;;;;;;;5099466;28;20409;-69
2023/05/02 11:08:48;;;;;;;4.55;2.40;;;;;;;;;;5097464;28;20077;-69
2023/05/02 11:11:33;;;;;;;6.22;1.85;;;;;;;;;;5095767;28;20039;-70
2023/05/02 11:13:59;;;;;;;1.88;1.30;;;;;;;;;;5095294;28;20039;-69
2023/05/02 11:16:25;;;;;;;7.78;1.73;;;;;;;;;;5096506;28;20396;-69
2023/05/02 11:18:58;;;;;;;2.33;1.58;;;;;;;;;;5106504;28;20036;-69
2023/05/02 11:21:27;;;;;;;5.88;1.98;;;;;;;;;;5099852;28;20043;-69
2023/05/02 11:24:13;;;;;;;5.53;1.45;;;;;;;;;;5093098;28;20480;-70
2023/05/02 11:26:39;;;;;;;5.50;1.48;;;;;;;;;;5093849;28;20040;-70
2023/05/02 11:29:05;;;;;;;5.10;1.60;;;;;;;;;;5103430;28;20047;-70
2023/05/02 11:31:31;;;;;;;4.55;1.88;;;;;;;;;;5091273;28;20044;-70
2023/05/02 11:33:58;;;;;;;2.95;1.75;;;;;;;;;;5092176;28;20477;-70
2023/05/02 11:36:34;;;;;;;4.70;1.85;;;;;;;;;;5094427;28;20072;-69
2023/05/02 11:39:01;;;;;;;10.15;2.22;;;;;;;;;;5105186;28;20464;-70
2023/05/02 11:41:40;;;;;;;7.60;2.63;;;;;;;;;;5109325;28;20048;-70
2023/05/02 11:44:06;;;;;;;2.35;1.40;;;;;;;;;;5103624;28;20040;-70
2023/05/02 11:46:33;;;;;;;4.82;1.20;;;;;;;;;;5102448;27;20126;-69
2023/05/02 11:49:00;;;;;;;2.95;1.00;;;;;;;;;;5096366;28;20046;-69
2023/05/02 11:51:26;;;;;;;1.60;0.68;;;;;;;;;;5101208;28;20130;-69
2023/05/02 11:53:52;;;;;;;2.88;0.98;;;;;;;;;;5102225;28;20537;-69
2023/05/02 11:56:23;;;;;;;8.43;2.15;;;;;;;;;;5102976;28;20505;-69
2023/05/02 11:58:58;;;;;;;3.38;1.48;;;;;;;;;;5099594;28;20054;-71
2023/05/02 12:01:24;;;;;;;3.65;1.35;;;;;;;;;;5094623;28;20277;-70
2023/05/02 12:04:00;;;;;;;3.45;1.17;;;;;;;;;;5104260;28;20040;-69
2023/05/02 12:06:27;;;;;;;1.65;1.08;;;;;;;;;;5105641;28;20092;-69
2023/05/02 12:09:05;;;;;;;4.38;1.25;;;;;;;;;;5095476;28;20154;-70
2023/05/02 12:11:31;;;;;;;3.90;1.42;;;;;;;;;;5093097;28;20322;-69
2023/05/02 12:13:57;;;;;;;4.05;1.20;;;;;;;;;;5095020;28;20485;-70
2023/05/02 12:16:23;;;;;;;4.72;1.13;;;;;;;;;;5098956;28;20097;-69
2023/05/02 12:18:50;;;;;;;3.88;1.42;;;;;;;;;;5093887;28;20497;-70
2023/05/02 12:21:16;;;;;;;5.47;2.03;;;;;;;;;;5090255;28;20082;-69
2023/05/02 12:23:43;;;;;;;3.70;1.55;;;;;;;;;;5103754;28;20172;-70
2023/05/02 12:26:36;;;;;;;8.65;2.17;;;;;;;;;;5097293;28;20126;-69
2023/05/02 12:29:02;;;;;;;4.32;1.92;;;;;;;;;;5089923;28;20055;-69
2023/05/02 12:31:30;;;;;;;7.80;1.83;;;;;;;;;;5103823;28;20048;-70
2023/05/02 12:33:58;;;;;;;6.13;1.38;;;;;;;;;;5103045;28;20040;-70
2023/05/02 12:36:24;;;;;;;6.65;1.40;;;;;;;;;;5101077;28;20071;-69
2023/05/02 12:38:51;;;;;;;2.72;1.67;;;;;;;;;;5090128;28;20036;-69
2023/05/02 12:41:18;;;;;;;2.92;1.85;;;;;;;;;;5104226;28;20095;-69
2023/05/02 12:43:48;;;;;;;2.58;1.35;;;;;;;;;;5090093;28;20059;-69
2023/05/02 12:46:15;;;;;;;2.72;1.52;;;;;;;;;;5091178;28;20039;-70
2023/05/02 12:48:42;;;;;;;3.92;1.10;;;;;;;;;;5102469;28;20043;-69
2023/05/02 12:51:22;;;;;;;2.28;1.40;;;;;;;;;;5102930;28;20443;-69
2023/05/02 12:53:48;;;;;;;2.03;1.20;;;;;;;;;;5100037;28;20493;-71
2023/05/02 12:56:15;;;;;;;1.75;1.00;;;;;;;;;;5102389;28;20047;-69
2023/05/02 12:58:42;;;;;;;2.85;1.20;;;;;;;;;;5096902;28;20050;-69
2023/05/02 13:01:08;;;;;;;2.35;1.10;;;;;;;;;;5097126;28;20089;-69
2023/05/02 13:03:35;;;;;;;3.22;1.35;;;;;;;;;;5100465;28;20044;-69
2023/05/02 13:06:01;;;;;;;5.88;1.20;;;;;;;;;;5096551;28;20044;-69
2023/05/02 13:08:28;;;;;;;1.83;1.20;;;;;;;;;;5098010;28;20044;-70
2023/05/02 13:10:54;;;;;;;5.40;1.35;;;;;;;;;;5102369;28;20051;-70
2023/05/02 13:13:20;;;;;;;2.45;1.10;;;;;;;;;;5100562;28;20036;-69
2023/05/02 13:15:46;;;;;;;1.77;1.20;;;;;;;;;;5108011;28;20126;-69
2023/05/02 13:18:13;;;;;;;7.30;1.75;;;;;;;;;;5099964;28;20119;-70
2023/05/02 13:20:39;;;;;;;3.17;1.15;;;;;;;;;;5100638;28;20473;-70
2023/05/02 13:23:05;;;;;;;3.55;1.33;;;;;;;;;;5093923;28;20143;-69
2023/05/02 13:25:31;;;;;;;3.30;1.30;;;;;;;;;;5089791;28;20132;-68
2023/05/02 13:27:57;;;;;;;1.92;1.25;;;;;;;;;;5095712;28;20512;-68
2023/05/02 13:30:23;;;;;;;1.75;1.10;;;;;;;;;;5094225;28;20083;-68
2023/05/02 13:32:50;;;;;;;1.90;0.93;;;;;;;;;;5096615;28;20063;-68
2023/05/02 13:35:16;;;;;;;1.50;0.90;;;;;;;;;;5105470;28;20024;-68
2023/05/02 13:37:43;;;;;;;2.97;1.20;;;;;;;;;;5098495;28;20070;-68
2023/05/02 13:40:09;;;;;;;6.22;2.15;;;;;;;;;;5094570;28;20044;-68
2023/05/02 13:42:35;;;;;;;1.88;0.90;;;;;;;;;;5091697;28;20119;-69
2023/05/02 13:45:04;;;;;;;2.72;1.20;;;;;;;;;;5092278;28;20481;-68
2023/05/02 13:47:30;;;;;;;1.45;0.93;;;;;;;;;;5089724;28;20090;-69
2023/05/02 13:49:56;;;;;;;3.53;1.40;;;;;;;;;;5093747;28;20134;-69
2023/05/02 13:52:22;;;;;;;6.85;1.38;;;;;;;;;;5096455;28;20029;-69
2023/05/02 13:54:49;;;;;;;4.60;1.60;;;;;;;;;;5096443;28;20087;-68
2023/05/02 13:57:15;;;;;;;3.20;1.25;;;;;;;;;;5095391;28;20040;-68
2023/05/02 13:59:41;;;;;;;4.00;1.20;;;;;;;;;;5095081;28;20039;-68
2023/05/02 14:02:07;;;;;;;3.53;1.23;;;;;;;;;;5093255;28;20226;-68
2023/05/02 14:04:33;;;;;;;3.83;1.23;;;;;;;;;;5096046;28;20043;-68
2023/05/02 14:06:59;;;;;;;4.15;1.50;;;;;;;;;;5098157;28;20197;-68
2023/05/02 14:09:26;;;;;;;4.97;1.85;;;;;;;;;;5092784;28;20123;-69
2023/05/02 14:11:52;;;;;;;3.13;1.45;;;;;;;;;;5096160;28;20032;-68
2023/05/02 14:14:18;;;;;;;6.13;2.38;;;;;;;;;;5098856;28;20036;-69
2023/05/02 14:16:44;;;;;;;5.38;1.83;;;;;;;;;;5092163;28;20043;-68
2023/05/02 14:19:10;;;;;;;3.72;1.08;;;;;;;;;;5092129;28;20104;-68
2023/05/02 14:21:37;;;;;;;5.47;1.85;;;;;;;;;;5102878;28;20055;-69
2023/05/02 14:24:05;;;;;;;5.70;1.40;;;;;;;;;;5102562;28;20039;-69
2023/05/02 14:26:31;;;;;;;2.83;1.33;;;;;;;;;;5091242;28;20180;-69
2023/05/02 14:28:57;;;;;;;2.60;1.38;;;;;;;;;;5090354;28;20063;-69
2023/05/02 14:31:24;;;;;;;3.17;1.52;;;;;;;;;;5103250;28;20044;-69
2023/05/02 14:33:50;;;;;;;7.18;2.13;;;;;;;;;;5093829;28;20048;-69
2023/05/02 14:36:16;;;;;;;5.88;1.67;;;;;;;;;;5092663;28;20028;-68
2023/05/02 14:38:42;;;;;;;5.35;2.13;;;;;;;;;;5092695;28;20489;-69
2023/05/02 14:41:09;;;;;;;5.18;1.55;;;;;;;;;;5100154;28;20169;-69